createdAt,value
2023-03-19T00:02:15.442Z,71.76
2023-03-19T00:04:43.651Z,71.54
2023-03-19T00:07:10.184Z,71.93
2023-03-19T00:09:36.708Z,71.58
2023-03-19T00:12:03.162Z,71.61
2023-03-19T00:14:29.933Z,71.92
2023-03-19T00:16:56.774Z,71.67
2023-03-19T00:19:23.508Z,71.59
2023-03-19T00:21:49.953Z,71.80
2023-03-19T00:24:17.516Z,72.24
2023-03-19T00:26:44.094Z,71.88
2023-03-19T00:29:11.103Z,72.04
2023-03-19T00:31:37.523Z,72.20
2023-03-19T00:34:04.078Z,72.16
2023-03-19T00:36:30.572Z,72.23
2023-03-19T00:38:58.305Z,72.15
2023-03-19T00:41:24.869Z,72.65
2023-03-19T00:43:58.123Z,72.69
2023-03-19T00:46:25.684Z,72.76
2023-03-19T00:48:55.390Z,73.32
2023-03-19T00:51:23.408Z,73.49
2023-03-19T00:53:50.455Z,73.38
2023-03-19T00:56:18.333Z,73.13
2023-03-19T00:58:45.455Z,73.25
2023-03-19T01:01:14.421Z,73.55
2023-03-19T01:03:40.923Z,73.05
2023-03-19T01:06:07.735Z,73.51
2023-03-19T01:08:34.136Z,73.00
2023-03-19T01:11:26.857Z,73.76
2023-03-19T01:13:53.884Z,73.31
2023-03-19T01:16:20.345Z,73.77
2023-03-19T01:18:47.414Z,73.73
2023-03-19T01:21:13.810Z,73.70
2023-03-19T01:23:40.888Z,73.49
2023-03-19T01:26:07.339Z,73.95
2023-03-19T01:28:34.107Z,74.49
2023-03-19T01:31:05.645Z,74.74
2023-03-19T01:33:32.093Z,74.65
2023-03-19T01:35:59.431Z,74.49
2023-03-19T01:38:25.977Z,74.29
2023-03-19T01:40:52.413Z,74.60
2023-03-19T01:43:22.431Z,74.87
2023-03-19T01:46:00.669Z,74.69
2023-03-19T01:48:29.613Z,74.69
2023-03-19T01:50:57.131Z,74.36
2023-03-19T01:53:27.839Z,74.58
2023-03-19T01:55:59.757Z,74.53
2023-03-19T01:58:26.715Z,74.69
2023-03-19T02:00:53.674Z,74.56
2023-03-19T02:03:20.453Z,74.80
2023-03-19T02:05:50.067Z,74.63
2023-03-19T02:08:18.933Z,74.84
2023-03-19T02:10:47.524Z,74.99
2023-03-19T02:13:14.119Z,74.91
2023-03-19T02:15:40.945Z,75.26
2023-03-19T02:18:08.393Z,75.07
2023-03-19T02:20:41.499Z,74.84
2023-03-19T02:23:27.238Z,75.51
2023-03-19T02:25:59.596Z,75.80
2023-03-19T02:28:26.353Z,76.16
2023-03-19T02:30:53.036Z,76.50
2023-03-19T02:33:19.790Z,76.29
2023-03-19T02:35:49.183Z,76.13
2023-03-19T02:38:15.883Z,76.26
2023-03-19T02:41:00.761Z,76.75
2023-03-19T02:43:27.835Z,76.82
2023-03-19T02:45:54.638Z,76.44
2023-03-19T02:48:21.078Z,76.37
2023-03-19T02:50:47.462Z,76.42
2023-03-19T02:53:14.362Z,76.45
2023-03-19T02:55:40.972Z,76.29
2023-03-19T02:58:07.345Z,76.42
2023-03-19T03:00:34.024Z,76.35
2023-03-19T03:03:01.727Z,76.54
2023-03-19T03:05:28.134Z,76.18
2023-03-19T03:07:54.540Z,76.44
2023-03-19T03:10:21.017Z,76.40
2023-03-19T03:12:47.416Z,76.68
2023-03-19T03:15:14.296Z,76.57
2023-03-19T03:17:41.858Z,76.85
2023-03-19T03:20:11.440Z,76.72
2023-03-19T03:22:39.240Z,77.03
2023-03-19T03:25:06.542Z,76.74
2023-03-19T03:27:33.322Z,76.88
2023-03-19T03:29:59.716Z,77.19
2023-03-19T03:32:26.494Z,77.53
2023-03-19T03:34:52.965Z,77.40
2023-03-19T03:37:19.713Z,77.19
2023-03-19T03:39:46.479Z,77.44
2023-03-19T03:42:12.851Z,77.82
2023-03-19T03:44:39.608Z,77.50
2023-03-19T03:47:06.650Z,77.75
2023-03-19T03:49:33.330Z,77.64
2023-03-19T03:51:59.752Z,77.94
2023-03-19T03:54:26.187Z,79.19
2023-03-19T03:56:52.671Z,79.02
2023-03-19T03:59:20.285Z,78.94
2023-03-19T04:01:46.696Z,78.55
2023-03-19T04:04:13.803Z,78.36
2023-03-19T04:06:40.185Z,78.80
2023-03-19T04:09:07.990Z,78.82
2023-03-19T04:11:35.628Z,79.56
2023-03-19T04:14:03.408Z,79.66
2023-03-19T04:16:29.912Z,79.63
2023-03-19T04:18:56.328Z,80.70
2023-03-19T04:21:22.719Z,80.11
2023-03-19T04:23:49.181Z,80.42
2023-03-19T04:26:16.105Z,79.60
2023-03-19T04:28:42.588Z,80.04
2023-03-19T04:31:09.867Z,80.02
2023-03-19T04:33:36.471Z,80.17
2023-03-19T04:36:04.351Z,79.53
2023-03-19T04:38:31.918Z,79.57
2023-03-19T04:40:58.412Z,79.80
2023-03-19T04:43:25.125Z,79.65
2023-03-19T04:45:51.959Z,79.63
2023-03-19T04:48:18.421Z,79.78
2023-03-19T04:50:47.261Z,79.36
2023-03-19T04:53:13.985Z,79.67
2023-03-19T04:55:41.011Z,79.86
2023-03-19T04:58:08.955Z,79.44
2023-03-19T05:00:35.877Z,79.51
2023-03-19T05:03:02.419Z,79.69
2023-03-19T05:05:29.161Z,80.06
2023-03-19T05:07:57.286Z,80.28
2023-03-19T05:10:24.032Z,79.86
2023-03-19T05:12:50.618Z,80.04
2023-03-19T05:15:17.112Z,80.40
2023-03-19T05:17:43.467Z,80.08
2023-03-19T05:20:12.655Z,80.02
2023-03-19T05:22:39.050Z,80.14
2023-03-19T05:25:06.895Z,80.27
2023-03-19T05:27:33.683Z,80.47
2023-03-19T05:30:01.340Z,80.20
2023-03-19T05:32:29.026Z,80.50
2023-03-19T05:34:55.395Z,80.13
2023-03-19T05:37:22.076Z,80.41
2023-03-19T05:39:48.448Z,79.92
2023-03-19T05:42:15.616Z,80.13
2023-03-19T05:44:42.274Z,80.52
2023-03-19T05:47:10.379Z,80.87
2023-03-19T05:49:37.185Z,80.16
2023-03-19T05:52:04.106Z,80.47
2023-03-19T05:54:30.685Z,81.66
2023-03-19T05:56:57.502Z,80.95
2023-03-19T05:59:23.915Z,81.65
2023-03-19T06:01:51.226Z,81.60
2023-03-19T06:04:17.728Z,81.15
2023-03-19T06:06:44.196Z,81.62
2023-03-19T06:09:10.628Z,82.27
2023-03-19T06:11:39.674Z,82.88
2023-03-19T06:14:06.909Z,82.19
2023-03-19T06:16:33.324Z,82.39
2023-03-19T06:18:59.859Z,81.89
2023-03-19T06:21:29.875Z,81.84
2023-03-19T06:23:56.682Z,82.19
2023-03-19T06:26:23.824Z,82.26
2023-03-19T06:28:50.472Z,82.37
2023-03-19T06:31:17.350Z,82.08
2023-03-19T06:33:43.807Z,81.78
2023-03-19T06:36:11.209Z,82.04
2023-03-19T06:38:37.786Z,81.84
2023-03-19T06:41:04.575Z,82.49
2023-03-19T06:43:31.849Z,82.31
2023-03-19T06:45:58.309Z,82.84
2023-03-19T06:48:25.058Z,82.78
2023-03-19T06:50:51.552Z,83.44
2023-03-19T06:53:17.946Z,84.02
2023-03-19T06:55:46.881Z,84.21
2023-03-19T06:58:13.283Z,84.18
2023-03-19T07:00:39.678Z,83.76
2023-03-19T07:03:07.391Z,83.67
2023-03-19T07:05:33.985Z,83.51
2023-03-19T07:08:00.717Z,83.41
2023-03-19T07:10:27.381Z,83.67
2023-03-19T07:12:54.027Z,83.55
2023-03-19T07:15:21.577Z,83.41
2023-03-19T07:17:48.830Z,83.43
2023-03-19T07:20:15.637Z,83.54
2023-03-19T07:22:42.030Z,83.67
2023-03-19T07:25:08.853Z,83.20
2023-03-19T07:27:35.412Z,83.25
2023-03-19T07:30:01.836Z,83.70
2023-03-19T07:32:28.556Z,82.91
2023-03-19T07:34:54.973Z,82.96
2023-03-19T07:37:22.536Z,83.39
2023-03-19T07:39:49.064Z,83.33
2023-03-19T07:42:16.596Z,83.71
2023-03-19T07:44:42.992Z,83.28
2023-03-19T07:47:22.421Z,82.85
2023-03-19T07:49:52.735Z,82.79
2023-03-19T07:52:19.191Z,82.13
2023-03-19T07:54:45.857Z,82.40
2023-03-19T07:57:12.290Z,81.90
2023-03-19T07:59:38.696Z,81.91
2023-03-19T08:02:05.143Z,83.39
2023-03-19T08:04:31.588Z,82.34
2023-03-19T08:06:58.354Z,82.80
2023-03-19T08:09:24.853Z,83.15
2023-03-19T08:11:51.317Z,82.81
2023-03-19T08:14:22.386Z,82.76
2023-03-19T08:16:49.256Z,82.10
2023-03-19T08:19:16.765Z,81.08
2023-03-19T08:21:43.241Z,81.06
2023-03-19T08:24:09.693Z,81.34
2023-03-19T08:26:36.383Z,81.04
2023-03-19T08:29:04.163Z,80.71
2023-03-19T08:31:30.738Z,80.34
2023-03-19T08:34:00.006Z,80.32
2023-03-19T08:36:27.522Z,80.39
2023-03-19T08:38:54.863Z,79.99
2023-03-19T08:41:22.706Z,78.73
2023-03-19T08:43:49.466Z,77.31
2023-03-19T08:46:16.397Z,77.89
2023-03-19T08:48:43.159Z,78.03
2023-03-19T08:51:10.822Z,78.00
2023-03-19T08:53:38.608Z,77.40
2023-03-19T08:56:07.749Z,75.56
2023-03-19T08:58:34.794Z,75.89
2023-03-19T09:01:07.419Z,75.59
2023-03-19T09:03:33.808Z,76.35
2023-03-19T09:06:01.992Z,75.46
2023-03-19T09:08:29.107Z,75.85
2023-03-19T09:10:56.580Z,75.49
2023-03-19T09:13:24.042Z,75.52
2023-03-19T09:15:50.677Z,74.23
2023-03-19T09:18:17.589Z,74.27
2023-03-19T09:20:43.980Z,73.73
2023-03-19T09:23:10.418Z,73.49
2023-03-19T09:25:36.951Z,73.38
2023-03-19T09:28:03.824Z,74.41
2023-03-19T09:30:30.273Z,75.00
2023-03-19T09:32:57.322Z,75.04
2023-03-19T09:35:24.041Z,75.41
2023-03-19T09:37:52.077Z,74.99
2023-03-19T09:40:33.735Z,75.15
2023-03-19T09:43:22.080Z,75.71
2023-03-19T09:45:49.221Z,75.19
2023-03-19T09:48:28.796Z,75.24
2023-03-19T09:50:56.369Z,74.09
2023-03-19T09:54:04.864Z,74.43
2023-03-19T09:56:33.316Z,74.95
2023-03-19T09:59:00.039Z,75.40
2023-03-19T10:01:33.637Z,75.09
2023-03-19T10:04:24.880Z,76.13
2023-03-19T10:06:58.967Z,75.92
2023-03-19T10:09:47.612Z,76.63
2023-03-19T10:12:38.843Z,77.96
2023-03-19T10:15:22.023Z,80.67
2023-03-19T10:17:59.939Z,81.60
2023-03-19T10:20:45.330Z,80.98
2023-03-19T10:23:34.758Z,82.16
2023-03-19T10:26:04.703Z,81.91
2023-03-19T10:28:31.788Z,81.30
2023-03-19T10:31:03.979Z,85.42
2023-03-19T10:33:43.140Z,87.79
2023-03-19T10:36:14.069Z,87.62
2023-03-19T10:38:43.373Z,90.64
2023-03-19T10:41:29.024Z,88.97
2023-03-19T10:44:01.545Z,89.03
2023-03-19T10:46:28.397Z,87.43
2023-03-19T10:48:54.812Z,86.90
2023-03-19T10:51:25.015Z,87.81
2023-03-19T10:53:53.692Z,85.40
2023-03-19T10:56:25.804Z,87.00
2023-03-19T10:59:04.075Z,87.44
2023-03-19T11:01:37.948Z,88.32
2023-03-19T11:04:18.193Z,87.52
2023-03-19T11:06:49.420Z,86.96
2023-03-19T11:09:24.030Z,87.48
2023-03-19T11:11:53.592Z,86.66
2023-03-19T11:14:25.431Z,87.37
2023-03-19T11:16:57.796Z,87.28
2023-03-19T11:19:29.643Z,85.83
2023-03-19T11:22:07.613Z,83.58
2023-03-19T11:24:38.150Z,81.82
2023-03-19T11:27:06.494Z,82.14
2023-03-19T11:29:44.136Z,81.87
2023-03-19T11:32:25.867Z,81.37
2023-03-19T11:34:55.403Z,82.41
2023-03-19T11:37:50.876Z,83.15
2023-03-19T11:40:31.966Z,82.51
2023-03-19T11:43:10.517Z,82.36
2023-03-19T11:46:00.110Z,82.34
2023-03-19T11:48:45.620Z,80.44
2023-03-19T11:51:23.030Z,80.34
2023-03-19T11:54:34.821Z,81.20
2023-03-19T11:57:08.800Z,80.78
2023-03-19T11:59:59.257Z,77.86
2023-03-19T12:02:40.933Z,78.10
2023-03-19T12:05:21.465Z,77.88
2023-03-19T12:08:08.389Z,77.44
2023-03-19T12:10:55.358Z,78.97
2023-03-19T12:13:27.846Z,79.19
2023-03-19T12:16:13.627Z,78.82
2023-03-19T12:19:03.037Z,77.61
2023-03-19T12:21:52.765Z,78.12
2023-03-19T12:24:53.457Z,77.18
2023-03-19T12:27:34.351Z,76.42
2023-03-19T12:30:11.824Z,75.26
2023-03-19T12:32:52.053Z,76.19
2023-03-19T12:35:24.483Z,76.97
2023-03-19T12:38:14.160Z,77.59
2023-03-19T12:40:48.594Z,75.58
2023-03-19T12:43:25.921Z,75.37
2023-03-19T12:46:03.144Z,76.74
2023-03-19T12:48:39.133Z,75.98
2023-03-19T12:51:09.684Z,75.69
2023-03-19T12:53:46.800Z,74.37
2023-03-19T12:56:21.756Z,76.33
2023-03-19T12:58:59.894Z,75.63
2023-03-19T13:01:36.672Z,75.93
2023-03-19T13:04:32.623Z,75.35
2023-03-19T13:07:05.987Z,74.08
2023-03-19T13:09:59.320Z,73.57
2023-03-19T13:12:29.229Z,74.86
2023-03-19T13:15:01.841Z,74.40
2023-03-19T13:17:37.584Z,74.69
2023-03-19T13:20:31.728Z,73.20
2023-03-19T13:23:03.189Z,73.95
2023-03-19T13:25:42.884Z,73.09
2023-03-19T13:28:18.778Z,72.68
2023-03-19T13:31:04.540Z,73.62
2023-03-19T13:33:32.610Z,73.29
2023-03-19T13:36:05.130Z,72.63
2023-03-19T13:38:41.414Z,71.94
2023-03-19T13:41:37.593Z,70.83
2023-03-19T13:44:22.321Z,69.43
2023-03-19T13:46:49.821Z,70.79
2023-03-19T13:49:19.258Z,69.60
2023-03-19T13:51:49.358Z,70.94
2023-03-19T13:54:20.131Z,71.09
2023-03-19T13:57:04.214Z,69.93
2023-03-19T13:59:32.933Z,70.42
2023-03-19T14:02:01.208Z,70.85
2023-03-19T14:04:31.759Z,70.00
2023-03-19T14:07:10.555Z,69.76
2023-03-19T14:09:45.618Z,69.72
2023-03-19T14:12:17.704Z,70.71
2023-03-19T14:15:13.572Z,71.05
2023-03-19T14:17:46.991Z,71.90
2023-03-19T14:20:14.554Z,71.18
2023-03-19T14:23:02.533Z,70.76
2023-03-19T14:25:51.464Z,70.06
2023-03-19T14:28:21.426Z,70.37
2023-03-19T14:30:51.944Z,69.95
2023-03-19T14:33:26.000Z,69.89
2023-03-19T14:35:53.465Z,70.54
2023-03-19T14:38:42.601Z,69.75
2023-03-19T14:41:15.289Z,69.48
2023-03-19T14:44:02.609Z,69.67
2023-03-19T14:46:32.346Z,69.73
2023-03-19T14:49:25.061Z,69.87
2023-03-19T14:52:14.896Z,70.51
2023-03-19T14:54:48.001Z,70.79
2023-03-19T14:57:17.877Z,70.99
2023-03-19T14:59:44.281Z,70.92
2023-03-19T15:02:32.384Z,71.24
2023-03-19T15:05:00.935Z,71.55
2023-03-19T15:07:34.057Z,71.78
2023-03-19T15:10:06.398Z,71.04
2023-03-19T15:13:09.097Z,71.53
2023-03-19T15:15:57.432Z,71.32
2023-03-19T15:18:25.975Z,71.03
2023-03-19T15:20:57.005Z,70.13
2023-03-19T15:23:28.601Z,69.73
2023-03-19T15:26:01.444Z,69.68
2023-03-19T15:28:37.553Z,70.43
2023-03-19T15:31:26.252Z,70.16
2023-03-19T15:33:53.249Z,70.24
2023-03-19T15:36:30.019Z,70.39
2023-03-19T15:39:05.079Z,69.85
2023-03-19T15:41:35.545Z,70.07
2023-03-19T15:44:06.113Z,69.95
2023-03-19T15:46:36.598Z,70.09
2023-03-19T15:49:29.250Z,69.85
2023-03-19T15:52:02.427Z,70.16
2023-03-19T15:54:28.948Z,70.05
2023-03-19T15:56:56.409Z,70.19
2023-03-19T15:59:26.628Z,69.21
2023-03-19T16:01:57.782Z,69.98
2023-03-19T16:04:27.515Z,69.88
2023-03-19T16:06:54.605Z,69.64
2023-03-19T16:09:33.863Z,69.72
2023-03-19T16:12:01.428Z,70.10
2023-03-19T16:14:45.439Z,69.88
2023-03-19T16:17:17.206Z,70.23
2023-03-19T16:19:55.945Z,70.15
2023-03-19T16:22:25.539Z,70.85
2023-03-19T16:24:52.593Z,70.81
2023-03-19T16:27:22.376Z,70.41
2023-03-19T16:29:59.823Z,70.39
2023-03-19T16:32:31.607Z,70.54
2023-03-19T16:35:05.584Z,70.30
2023-03-19T16:37:43.312Z,70.31
2023-03-19T16:40:12.504Z,70.24
2023-03-19T16:42:41.089Z,69.67
2023-03-19T16:45:16.709Z,68.42
2023-03-19T16:47:48.680Z,68.15
2023-03-19T16:50:16.022Z,67.89
2023-03-19T16:52:44.833Z,67.73
2023-03-19T16:55:26.229Z,67.13
2023-03-19T16:58:01.757Z,67.67
2023-03-19T17:00:31.821Z,68.50
2023-03-19T17:02:58.909Z,68.93
2023-03-19T17:05:27.293Z,68.95
2023-03-19T17:07:57.201Z,69.55
2023-03-19T17:10:26.735Z,70.20
2023-03-19T17:12:54.978Z,70.57
2023-03-19T17:15:27.438Z,70.70
2023-03-19T17:17:54.426Z,70.19
2023-03-19T17:20:27.958Z,70.37
2023-03-19T17:22:54.524Z,70.25
2023-03-19T17:25:21.529Z,70.37
2023-03-19T17:27:48.021Z,70.16
2023-03-19T17:30:14.623Z,69.95
2023-03-19T17:32:46.025Z,69.58
2023-03-19T17:35:17.889Z,69.61
2023-03-19T17:37:45.243Z,69.93
2023-03-19T17:40:17.683Z,69.93
2023-03-19T17:42:45.047Z,69.62
2023-03-19T17:45:16.781Z,69.23
2023-03-19T17:47:46.911Z,69.16
2023-03-19T17:50:22.482Z,69.09
2023-03-19T17:52:49.196Z,68.91
2023-03-19T17:55:27.107Z,68.73
2023-03-19T17:57:53.564Z,69.32
2023-03-19T18:00:22.247Z,69.34
2023-03-19T18:02:51.446Z,69.31
2023-03-19T18:05:26.073Z,69.18
2023-03-19T18:07:56.296Z,69.22
2023-03-19T18:10:30.293Z,69.18
2023-03-19T18:12:59.909Z,69.11
2023-03-19T18:15:29.705Z,68.99
2023-03-19T18:17:58.145Z,69.12
2023-03-19T18:20:37.137Z,69.33
2023-03-19T18:23:05.358Z,69.25
2023-03-19T18:25:35.056Z,69.21
2023-03-19T18:28:05.463Z,69.26
2023-03-19T18:30:34.468Z,69.21
2023-03-19T18:33:05.742Z,69.51
2023-03-19T18:35:36.999Z,69.87
2023-03-19T18:38:04.001Z,69.64
2023-03-19T18:40:32.667Z,69.52
2023-03-19T18:42:59.466Z,69.80
2023-03-19T18:45:28.718Z,69.66
2023-03-19T18:47:56.962Z,69.60
2023-03-19T18:50:29.172Z,69.49
2023-03-19T18:52:56.741Z,69.56
2023-03-19T18:55:30.369Z,69.79
2023-03-19T18:58:00.899Z,69.82
2023-03-19T19:00:31.514Z,69.89
2023-03-19T19:02:58.848Z,69.99
2023-03-19T19:05:28.054Z,69.84
2023-03-19T19:07:56.760Z,69.91
2023-03-19T19:10:24.557Z,70.17
2023-03-19T19:12:53.332Z,70.40
2023-03-19T19:15:30.432Z,70.63
2023-03-19T19:17:57.735Z,71.11
2023-03-19T19:20:27.566Z,71.47
2023-03-19T19:22:54.839Z,71.18
2023-03-19T19:25:23.418Z,71.48
2023-03-19T19:27:58.862Z,71.53
2023-03-19T19:30:25.568Z,71.40
2023-03-19T19:32:52.037Z,71.34
2023-03-19T19:35:27.062Z,71.56
2023-03-19T19:37:54.019Z,71.80
2023-03-19T19:40:27.187Z,72.21
2023-03-19T19:42:54.172Z,72.43
2023-03-19T19:45:39.988Z,72.62
2023-03-19T19:48:14.558Z,72.74
2023-03-19T19:50:41.349Z,72.50
2023-03-19T19:53:07.848Z,72.32
2023-03-19T19:55:34.528Z,72.77
2023-03-19T19:58:01.718Z,72.69
2023-03-19T20:00:30.748Z,72.87
2023-03-19T20:02:59.239Z,72.74
2023-03-19T20:05:27.969Z,72.84
2023-03-19T20:07:56.737Z,72.78
2023-03-19T20:10:26.409Z,73.25
2023-03-19T20:12:56.250Z,73.00
2023-03-19T20:15:29.419Z,73.66
2023-03-19T20:17:56.435Z,73.77
2023-03-19T20:20:24.529Z,73.43
2023-03-19T20:22:51.977Z,73.75
2023-03-19T20:25:20.697Z,73.64
2023-03-19T20:27:51.186Z,73.50
2023-03-19T20:30:24.238Z,73.69
2023-03-19T20:32:51.286Z,73.54
2023-03-19T20:35:23.782Z,74.05
2023-03-19T20:37:51.958Z,73.98
2023-03-19T20:40:19.756Z,74.10
2023-03-19T20:42:48.984Z,74.61
2023-03-19T20:45:21.962Z,74.96
2023-03-19T20:47:51.955Z,74.97
2023-03-19T20:50:22.538Z,75.43
2023-03-19T20:52:49.165Z,75.33
2023-03-19T20:55:21.153Z,75.56
2023-03-19T20:57:51.093Z,75.43
2023-03-19T21:00:32.568Z,75.48
2023-03-19T21:03:01.249Z,75.30
2023-03-19T21:05:36.964Z,75.70
2023-03-19T21:08:14.960Z,75.61
2023-03-19T21:10:43.171Z,75.89
2023-03-19T21:13:14.235Z,76.16
2023-03-19T21:15:41.793Z,76.34
2023-03-19T21:18:08.954Z,76.09
2023-03-19T21:20:39.001Z,76.40
2023-03-19T21:23:25.330Z,76.29
2023-03-19T21:25:52.024Z,76.13
2023-03-19T21:28:39.840Z,76.66
2023-03-19T21:31:07.517Z,76.36
2023-03-19T21:33:35.400Z,76.33
2023-03-19T21:36:03.197Z,76.81
2023-03-19T21:38:32.937Z,76.22
2023-03-19T21:41:02.264Z,76.29
2023-03-19T21:43:39.596Z,76.77
2023-03-19T21:46:22.922Z,77.59
2023-03-19T21:48:50.776Z,78.11
2023-03-19T21:51:17.309Z,78.93
2023-03-19T21:53:45.664Z,78.52
2023-03-19T21:56:23.325Z,78.48
2023-03-19T21:58:52.109Z,77.95
2023-03-19T22:01:22.566Z,77.87
2023-03-19T22:03:49.813Z,77.57
2023-03-19T22:06:17.076Z,77.83
2023-03-19T22:08:48.293Z,77.92
2023-03-19T22:11:24.587Z,77.90
2023-03-19T22:13:51.058Z,77.83
2023-03-19T22:16:21.015Z,77.90
2023-03-19T22:18:48.445Z,78.15
2023-03-19T22:21:17.769Z,78.40
2023-03-19T22:23:46.519Z,78.27
2023-03-19T22:26:33.207Z,78.75
2023-03-19T22:29:04.385Z,78.34
2023-03-19T22:31:31.658Z,78.82
2023-03-19T22:33:58.247Z,78.43
2023-03-19T22:36:24.673Z,78.79
2023-03-19T22:38:51.734Z,79.18
2023-03-19T22:41:36.509Z,79.34
2023-03-19T22:44:06.681Z,79.41
2023-03-19T22:46:33.239Z,79.01
2023-03-19T22:48:59.678Z,78.95
2023-03-19T22:51:27.862Z,79.28
2023-03-19T22:53:54.656Z,79.21
2023-03-19T22:56:21.845Z,79.71
2023-03-19T22:58:48.664Z,79.90
2023-03-19T23:01:21.429Z,79.86
2023-03-19T23:03:49.312Z,79.56
2023-03-19T23:06:29.755Z,80.37
2023-03-19T23:08:57.763Z,80.08
2023-03-19T23:11:24.363Z,79.93
2023-03-19T23:13:50.996Z,80.28
2023-03-19T23:16:21.528Z,80.10
2023-03-19T23:18:49.302Z,80.40
2023-03-19T23:21:17.945Z,80.41
2023-03-19T23:23:44.888Z,80.26
2023-03-19T23:26:34.275Z,80.52
2023-03-19T23:29:04.786Z,80.45
2023-03-19T23:31:31.945Z,80.80
2023-03-19T23:33:58.350Z,80.80
2023-03-19T23:36:25.235Z,80.66
2023-03-19T23:38:51.949Z,80.34
2023-03-19T23:41:26.496Z,80.65
2023-03-19T23:43:53.156Z,80.58
2023-03-19T23:46:21.020Z,80.80
2023-03-19T23:48:47.613Z,81.03
2023-03-19T23:51:15.769Z,80.99
2023-03-19T23:53:42.545Z,81.10
2023-03-19T23:56:19.429Z,81.19
2023-03-19T23:58:47.743Z,81.10
